Nearby METAR Reports

 

EGSS - Stansted Airport, United Kingdom
Distance from station: NW 15mi, 24km
Updated: 22/09/2017 14:20
Clear
Clear
 Wind from SSW
Wind: SSW 9 mph , 15 km/h
Temperature: 17°C
Dew Point: 6°C
Humidity: 49%
Barometer: 1021 hPa
Clouds: Clear
Visibility: 6 miles , 10 km
2017/09/22 13:20 EGSS 221320Z AUTO 21008KT 180V250 9999 NCD 17/06 Q1021
EGMC - Southend-On-Sea, United Kingdom
Distance from station: SE 15mi, 25km
Updated: 22/09/2017 14:20
Few Clouds
Few Clouds
 Wind from SW
Wind: SW 7 mph , 11 km/h
Temperature: 18°C
Dew Point: 6°C
Humidity: 46%
Barometer: 1021 hPa
Clouds: Few Clouds
Visibility: 6 miles , 10 km
Cloud details: Few Clouds 1372 m
2017/09/22 13:20 EGMC 221320Z 22006KT 180V280 9999 FEW045 18/06 Q1021
 
EGLC - London City Airp, United Kingdom
Distance from station: SW 24mi, 39km
Updated: 22/09/2017 14:20
Clear
Clear
 Wind from WSW
Wind: WSW 12 mph , 19 km/h
Temperature: 18°C
Dew Point: 6°C
Humidity: 46%
Barometer: 1021 hPa
Clouds: Clear
Visibility: 6 miles , 10 km
2017/09/22 13:20 EGLC 221320Z AUTO 24010KT 210V280 9999 NCD 18/06 Q1021
EGUW - Wattisham Raf, United Kingdom
Distance from station: NE 34mi, 54km
Updated: 22/09/2017 13:50
Few Clouds
Few Clouds
 Wind from SW
Wind: SW 7 mph , 11 km/h
Temperature: 16°C
Dew Point: 4°C
Humidity: 45%
Barometer: 1021 hPa
Clouds: Few Clouds
Visibility: 6 miles , 10 km
Cloud details: Few Clouds 1067 m
2017/09/22 12:50 EGUW 221250Z 23006KT 9999 FEW035 16/04 Q1021 BLU NOSIG
 
EGGW - Luton Airport, United Kingdom
Distance from station: WNW 37mi, 59km
Updated: 22/09/2017 14:20
Mostly cloudy
Mostly cloudy
 Wind from SSW
Wind: SSW 9 mph , 15 km/h
Temperature: 16°C
Dew Point: 9°C
Humidity: 63%
Barometer: 1021 hPa
Clouds: Mostly cloudy
Visibility: 6 miles , 10 km
Cloud details: Mostly cloudy 975 m
2017/09/22 13:20 EGGW 221320Z AUTO 20008KT 150V230 9999 BKN032 16/09 Q1021
EGWU - Northolt Raf, United Kingdom
Distance from station: WSW 40mi, 64km
Updated: 22/09/2017 13:50
Few Clouds
Few Clouds
 Wind from W
Wind: W 8 mph , 13 km/h
Temperature: 18°C
Dew Point: 9°C
Humidity: 56%
Barometer: 1021 hPa
Clouds: Few Clouds
Visibility: 6 miles , 10 km
Cloud details: Few Clouds 1036 m
2017/09/22 12:50 EGWU 221250Z 27007KT 9999 FEW034 18/09 Q1021 BLU NOSIG